Flight Track Log - Related Links

Times and Time Zones

All times are in EDT time to prevent confusion due to time zone crossing. See the SWA920 flight status page for this flight to view local times or setup timezone preferences in your user account.

Time Position Orientation Groundspeed Altitude Reporting Facility
EDT Latitude Longitude Course Direction KTS MPH feet Rate Location/Type
Fri 01:02:54 PM 42.9500 -71.4167 20° North 158 182 1,400  Level KA90
Fri 01:03:36 PM 42.9833 -71.4000 20° North 208 239 2,800 2,930 Climbing KA90
Fri 01:04:20 PM 43.0250 -71.3836 16° North 210 242 5,600 3,288 Climbing Boston Center
Fri 01:05:20 PM 43.0794 -71.4311 327° Northwest 234 269 8,500 2,600 Climbing Boston Center
Fri 01:06:20 PM 43.0931 -71.5389 280° West 239 275 10,800 2,650 Climbing Boston Center
Fri 01:07:20 PM 43.0961 -71.6753 272° West 329 379 13,800 2,950 Climbing Boston Center
Fri 01:08:20 PM 43.1011 -71.8144 273° West 360 414 16,700 2,600 Climbing Boston Center
Fri 01:09:20 PM 43.1058 -71.9481 273° West 386 444 19,000 2,350 Climbing Boston Center
Fri 01:10:20 PM 43.1106 -72.1017 272° West 391 450 21,400 2,450 Climbing Boston Center
Fri 01:11:20 PM 43.1150 -72.2636 272° West 411 473 23,900 2,150 Climbing Boston Center
Fri 01:12:20 PM 43.1256 -72.4258 275° West 425 489 25,700 1,950 Climbing Boston Center
Fri 01:13:20 PM 43.1317 -72.5936 273° West 438 504 27,800 2,200 Climbing Boston Center
Fri 01:14:20 PM 43.1272 -72.7842 268° West 455 524 30,100 2,100 Climbing Boston Center
Fri 01:15:20 PM 43.1308 -72.9550 272° West 455 524 32,000 1,800 Climbing Boston Center
Fri 01:16:20 PM 43.1383 -73.1117 274° West 461 531 33,700 1,800 Climbing Boston Center
Fri 01:17:20 PM 43.1414 -73.2794 271° West 456 525 35,600 1,700 Climbing Boston Center
Fri 01:18:20 PM 43.1419 -73.4558 270° West 441 507 37,100 1,200 Climbing Boston Center
Fri 01:19:20 PM 43.1447 -73.6181 271° West 434 499 38,000 450 Climbing Boston Center
Fri 01:20:20 PM 43.1469 -73.7861 271° West 434 499 38,000  Level Boston Center
Fri 01:21:20 PM 43.1489 -73.9542 271° West 441 507 38,000  Level Boston Center
Fri 01:22:20 PM 43.1528 -74.1222 272° West 441 507 38,000  Level Boston Center
Fri 01:23:20 PM 43.1544 -74.2844 271° West 441 507 38,000  Level Boston Center
Fri 01:24:20 PM 43.1558 -74.4494 271° West 441 507 38,000  Level Boston Center
Fri 01:25:20 PM 43.1592 -74.6147 272° West 441 507 38,000  Level Boston Center
Fri 01:26:20 PM 43.1603 -74.7714 271° West 436 502 38,000  Level Boston Center
Fri 01:27:20 PM 43.1589 -74.9336 269° West 431 496 38,000  Level Boston Center
Fri 01:28:20 PM 43.1614 -75.0958 271° West 431 496 38,000  Level Boston Center
Fri 01:29:20 PM 43.1606 -75.2239 270° West 425 489 38,000  Level Boston Center
Fri 01:30:20 PM 43.1622 -75.3978 271° West 420 483 38,000  Level Boston Center
Fri 01:31:20 PM 43.1622 -75.5572 270° West 420 483 38,000  Level Boston Center
Fri 01:32:20 PM 43.1619 -75.7136 270° West 420 483 38,000  Level Boston Center
Fri 01:34:36 PM 43.1608 -76.0914 270° West 430 495 38,000  Level Cleveland Center
Fri 01:35:36 PM 43.1461 -76.2492 263° West 430 495 38,000  Level Cleveland Center
Fri 01:36:36 PM 43.0997 -76.4031 248° West 418 481 38,000  Level Cleveland Center
Fri 01:37:36 PM 43.0508 -76.5542 246° West 429 494 38,000  Level Cleveland Center
Fri 01:38:36 PM 43.0017 -76.7050 246° West 440 506 38,000  Level Cleveland Center
Fri 01:39:36 PM 42.9525 -76.8556 246° West 440 506 38,000  Level Cleveland Center
Fri 01:40:36 PM 42.9050 -77.0058 247° West 440 506 38,000  Level Cleveland Center
Fri 01:41:36 PM 42.8575 -77.1531 246° West 440 506 38,000  Level Cleveland Center
Fri 01:42:36 PM 42.8075 -77.3031 246° West 440 506 38,000  Level Cleveland Center
Fri 01:43:36 PM 42.7594 -77.4497 246° West 434 499 38,000  Level Cleveland Center
Fri 01:44:36 PM 42.7050 -77.5939 243° Southwest 431 496 38,000  Level Cleveland Center
Fri 01:45:36 PM 42.6628 -77.7425 249° West 431 496 38,000  Level Cleveland Center
Fri 01:46:36 PM 42.6122 -77.8917 245° Southwest 426 490 38,000  Level Cleveland Center
Fri 01:47:36 PM 42.5656 -78.0347 246° West 426 490 38,000  Level Cleveland Center
Fri 01:48:36 PM 42.5164 -78.1775 245° Southwest 426 490 38,000  Level Cleveland Center
Fri 01:49:36 PM 42.4672 -78.3231 245° Southwest 432 497 38,000  Level Cleveland Center
Fri 01:50:36 PM 42.4219 -78.4539 245° Southwest 426 490 38,000  Level Cleveland Center
Fri 01:51:36 PM 42.3722 -78.5961 245° Southwest 426 490 38,000  Level Cleveland Center
Fri 01:52:36 PM 42.3225 -78.7408 245° Southwest 426 490 38,000  Level Cleveland Center
Fri 01:53:36 PM 42.2728 -78.8856 245° Southwest 426 490 38,000  Level Cleveland Center
Fri 01:54:36 PM 42.2164 -79.0442 244° Southwest 426 490 38,000  Level Cleveland Center
Fri 01:55:36 PM 42.1703 -79.1881 247° West 426 490 38,000  Level Cleveland Center
Fri 01:56:36 PM 42.1306 -79.3428 251° West 431 496 38,000  Level Cleveland Center
Fri 01:57:36 PM 42.0925 -79.4947 251° West 431 496 38,000  Level Cleveland Center
Fri 01:58:36 PM 42.0542 -79.6464 251° West 431 496 38,000  Level Cleveland Center
Fri 01:59:36 PM 42.0136 -79.7950 250° West 431 496 38,000  Level Cleveland Center
Fri 02:00:36 PM 41.9789 -79.9322 251° West 431 496 38,000  Level Cleveland Center
Fri 02:01:36 PM 41.9358 -80.0836 249° West 431 496 38,000  Level Cleveland Center
Fri 02:02:36 PM 41.8928 -80.2456 250° West 431 496 38,000  Level Cleveland Center
Fri 02:03:36 PM 41.8514 -80.3992 250° West 431 496 38,000  Level Cleveland Center
Fri 02:04:36 PM 41.8119 -80.5497 251° West 431 496 38,000  Level Cleveland Center
Fri 02:05:36 PM 41.7703 -80.7000 250° West 431 496 38,000  Level Cleveland Center
Fri 02:06:36 PM 41.7303 -80.8475 250° West 431 496 38,000  Level Cleveland Center
Fri 02:07:36 PM 41.7111 -81.0031 261° West 422 486 38,000  Level Cleveland Center
Fri 02:08:36 PM 41.7042 -81.1617 267° West 427 491 38,000  Level Cleveland Center
Fri 02:09:36 PM 41.6969 -81.3144 266° West 427 491 38,000  Level Cleveland Center
Fri 02:10:36 PM 41.6875 -81.4756 266° West 421 484 38,000  Level Cleveland Center
Fri 02:11:36 PM 41.6800 -81.6342 266° West 421 484 38,000  Level Cleveland Center
Fri 02:12:36 PM 41.6722 -81.7922 266° West 427 491 38,000  Level Cleveland Center
Fri 02:13:36 PM 41.6619 -81.9478 265° West 427 491 38,000  Level Cleveland Center
Fri 02:14:36 PM 41.6539 -82.1061 266° West 422 486 38,000  Level Cleveland Center
Fri 02:15:36 PM 41.6433 -82.2642 265° West 422 486 38,000  Level Cleveland Center
Fri 02:16:36 PM 41.6367 -82.4253 267° West 427 491 38,000  Level Cleveland Center
Fri 02:17:36 PM 41.6258 -82.5639 264° West 427 491 38,000  Level Cleveland Center
Fri 02:18:36 PM 41.6147 -82.7217 265° West 427 491 38,000  Level Cleveland Center
Fri 02:19:36 PM 41.6075 -82.8797 267° West 421 484 38,000  Level Cleveland Center
Fri 02:20:36 PM 41.5961 -83.0350 264° West 426 490 38,000  Level Cleveland Center
Fri 02:21:36 PM 41.5867 -83.1761 265° West 426 490 38,000  Level Cleveland Center
Fri 02:22:36 PM 41.5722 -83.3478 264° West 421 484 38,000  Level Cleveland Center
Fri 02:23:36 PM 41.5619 -83.5083 265° West 421 484 38,000  Level Cleveland Center
Fri 02:24:36 PM 41.5517 -83.6658 265° West 426 490 38,000  Level Cleveland Center
Fri 02:25:36 PM 41.5408 -83.8236 265° West 426 490 38,000 -200 Level Cleveland Center
Fri 02:26:36 PM 41.5300 -83.9811 265° West 426 490 37,600 -650 Descending Cleveland Center
Fri 02:27:36 PM 41.5169 -84.1386 264° West 426 490 36,700 -900 Descending Cleveland Center
Fri 02:28:36 PM 41.5100 -84.2908 267° West 426 490 35,800 -2,031 Descending Cleveland Center
Fri 02:30:51 PM 41.4803 -84.6628 264° West 439 505 30,100 -1,766 Descending Chicago Center
Fri 02:31:53 PM 41.4872 -84.8369 273° West 469 540 30,000 -48 Descending Chicago Center
Fri 02:32:55 PM 41.4942 -85.0097 273° West 468 539 30,000 -484 Level Chicago Center
Fri 02:33:57 PM 41.4997 -85.1847 272° West 469 540 29,000 -2,129 Descending Chicago Center
Fri 02:34:59 PM 41.5036 -85.3625 272° West 471 542 25,600 -2,613 Descending Chicago Center
Fri 02:36:01 PM 41.5100 -85.5358 273° West 450 518 23,600 -1,984 Descending Chicago Center
Fri 02:37:03 PM 41.5133 -85.6914 272° West 417 480 21,500 -1,790 Descending Chicago Center
Fri 02:38:05 PM 41.4986 -85.8361 262° West 390 449 19,900 -1,887 Descending Chicago Center
Fri 02:39:07 PM 41.4858 -86.0017 264° West 375 432 17,600 -2,226 Descending Chicago Center
Fri 02:40:09 PM 41.4778 -86.1406 266° West 374 430 15,300 -2,032 Descending Chicago Center
Fri 02:41:11 PM 41.4694 -86.2750 265° West 366 421 13,400 -1,839 Descending Chicago Center
Fri 02:42:13 PM 41.4633 -86.4039 266° West 350 403 11,500 -1,403 Descending Chicago Center
Fri 02:43:15 PM 41.4728 -86.5308 276° West 343 395 10,500 -726 Descending Chicago Center
Fri 02:44:17 PM 41.4822 -86.6586 276° West 346 398 10,000 -242 Descending Chicago Center
Fri 02:45:19 PM 41.4908 -86.7942 275° West 335 386 10,000 -339 Level Chicago Center
Fri 02:46:21 PM 41.4997 -86.9128 276° West 325 374 9,300 -1,258 Descending Chicago Center
Fri 02:47:23 PM 41.5103 -87.0500 276° West 313 360 7,400 -1,440 Descending Chicago Center
Fri 02:48:26 PM 41.5289 -87.1586 283° West 306 352 6,300 -919 Descending Chicago Center
Fri 02:49:27 PM 41.5500 -87.2667 285° West 289 333 5,500 -893 Descending Chicago TRACON
Fri 02:50:27 PM 41.5667 -87.3667 283° West 285 328 4,500 -750 Descending Chicago TRACON
Fri 02:51:27 PM 41.5833 -87.4667 283° West 275 316 4,000 -236 Descending Chicago TRACON
Fri 02:52:34 PM 41.5964 -87.5647 280° West 279 321 4,000  Level Chicago Center
Fri 02:53:36 PM 41.6122 -87.6847 280° West 277 319 4,000  Level Chicago Center
Fri 02:54:38 PM 41.6131 -87.7836 271° West 273 314 4,000  Level Chicago Center
Fri 02:55:40 PM 41.6061 -87.8681 264° West 249 287 4,000 -194 Level Chicago Center
Fri 02:56:42 PM 41.6422 -87.9242 311° West 248 285 3,600 -629 Descending Chicago Center
Fri 02:57:44 PM 41.6972 -87.8636 39° Northeast 224 258 2,700 -792 Descending Chicago Center
Fri 02:58:28 PM 41.7167 -87.8333 49° Northeast 188 216 2,200 -750 Descending Chicago TRACON
Fri 02:59:28 PM 41.7500 -87.7833 48° Northeast 134 154 1,400 -800 Descending Chicago TRACON
Fri 03:02:00 PM 41.7833 -87.7500 334° Northwest  Level FlightAware Approximate

Login

Don't have an account? Register now (free) for customized features, flight alerts, and more!